createdAt,value
2023-04-06T00:01:16.172Z,99403.61
2023-04-06T00:02:28.720Z,99404.61
2023-04-06T00:03:51.222Z,99405.20
2023-04-06T00:05:03.399Z,99400.11
2023-04-06T00:06:20.075Z,99398.84
2023-04-06T00:07:36.261Z,99397.58
2023-04-06T00:08:24.577Z,99396.67
2023-04-06T00:09:13.753Z,99394.39
2023-04-06T00:10:07.856Z,99393.99
2023-04-06T00:11:19.703Z,99390.48
2023-04-06T00:12:35.281Z,99387.30
2023-04-06T00:14:01.753Z,99386.37
2023-04-06T00:15:07.115Z,99382.87
2023-04-06T00:16:19.822Z,99382.61
2023-04-06T00:17:33.063Z,99380.30
2023-04-06T00:18:48.245Z,99379.95
2023-04-06T00:20:13.348Z,99378.22
2023-04-06T00:21:45.856Z,99374.15
2023-04-06T00:23:18.342Z,99369.63
2023-04-06T00:24:16.901Z,99372.67
2023-04-06T00:25:09.371Z,99370.64
2023-04-06T00:25:56.142Z,99372.34
2023-04-06T00:26:49.013Z,99369.92
2023-04-06T00:27:34.006Z,99367.59
2023-04-06T00:28:48.329Z,99363.81
2023-04-06T00:29:46.342Z,99364.80
2023-04-06T00:30:52.971Z,99360.45
2023-04-06T00:32:08.698Z,99362.79
2023-04-06T00:33:18.183Z,99361.75
2023-04-06T00:34:32.154Z,99357.31
2023-04-06T00:35:47.704Z,99358.67
2023-04-06T00:36:58.060Z,99361.73
2023-04-06T00:37:33.600Z,99358.49
2023-04-06T00:38:36.726Z,99357.46
2023-04-06T00:39:19.010Z,99358.59
2023-04-06T00:40:33.356Z,99356.05
2023-04-06T00:41:31.476Z,99351.05
2023-04-06T00:42:46.513Z,99353.00
2023-04-06T00:43:36.452Z,99352.86
2023-04-06T00:44:11.752Z,99355.83
2023-04-06T00:45:01.768Z,99354.77
2023-04-06T00:46:09.596Z,99350.46
2023-04-06T00:46:53.623Z,99346.70
2023-04-06T00:48:03.920Z,99348.66
2023-04-06T00:49:21.939Z,99353.08
2023-04-06T00:50:08.554Z,99345.33
2023-04-06T00:50:59.857Z,99345.67
2023-04-06T00:52:04.660Z,99349.08
2023-04-06T00:53:04.794Z,99347.58
2023-04-06T00:54:28.784Z,99345.78
2023-04-06T00:55:20.150Z,99341.11
2023-04-06T00:56:16.313Z,99340.02
2023-04-06T00:56:53.822Z,99335.08
2023-04-06T00:57:50.767Z,99333.60
2023-04-06T00:58:38.598Z,99335.04
2023-04-06T00:59:23.269Z,99333.85
2023-04-06T01:00:12.623Z,99332.96
2023-04-06T01:01:04.749Z,99334.39
2023-04-06T01:02:37.504Z,99329.91
2023-04-06T01:03:55.035Z,99329.15
2023-04-06T01:04:55.806Z,99325.20
2023-04-06T01:05:55.913Z,99328.96
2023-04-06T01:06:58.344Z,99324.90
2023-04-06T01:07:41.897Z,99325.15
2023-04-06T01:08:40.616Z,99323.46
2023-04-06T01:09:55.927Z,99326.64
2023-04-06T01:10:51.777Z,99324.20
2023-04-06T01:11:23.862Z,99323.52
2023-04-06T01:12:22.453Z,99318.37
2023-04-06T01:13:20.188Z,99318.16
2023-04-06T01:14:23.717Z,99320.84
2023-04-06T01:15:16.042Z,99321.64
2023-04-06T01:16:16.268Z,99316.59
2023-04-06T01:17:04.888Z,99315.20
2023-04-06T01:18:00.570Z,99313.67
2023-04-06T01:19:09.049Z,99317.24
2023-04-06T01:19:58.076Z,99312.98
2023-04-06T01:20:55.322Z,99317.23
2023-04-06T01:22:01.148Z,99313.58
2023-04-06T01:22:39.335Z,99307.08
2023-04-06T01:23:25.917Z,99307.22
2023-04-06T01:24:22.168Z,99306.23
2023-04-06T01:25:26.023Z,99309.73
2023-04-06T01:26:30.839Z,99304.77
2023-04-06T01:27:53.284Z,99302.84
2023-04-06T01:28:53.738Z,99301.05
2023-04-06T01:29:51.191Z,99300.20
2023-04-06T01:31:03.708Z,99295.73
2023-04-06T01:31:47.084Z,99294.83
2023-04-06T01:32:49.723Z,99296.86
2023-04-06T01:33:54.533Z,99292.88
2023-04-06T01:35:10.204Z,99290.24
2023-04-06T01:35:55.484Z,99292.17
2023-04-06T01:37:25.639Z,99291.60
2023-04-06T01:38:31.396Z,99291.55
2023-04-06T01:39:09.766Z,99288.73
2023-04-06T01:39:52.174Z,99288.55
2023-04-06T01:40:58.944Z,99282.98
2023-04-06T01:42:16.563Z,99285.52
2023-04-06T01:43:21.172Z,99281.32
2023-04-06T01:44:06.172Z,99285.13
2023-04-06T01:44:58.642Z,99285.15
2023-04-06T01:45:54.002Z,99280.07
2023-04-06T01:46:39.679Z,99278.48
2023-04-06T01:47:47.515Z,99277.27
2023-04-06T01:48:27.390Z,99275.08
2023-04-06T01:49:05.536Z,99276.08
2023-04-06T01:49:43.161Z,99273.08
2023-04-06T01:50:21.054Z,99270.52
2023-04-06T01:51:27.174Z,99273.84
2023-04-06T01:52:28.697Z,99268.16
2023-04-06T01:53:06.514Z,99269.87
2023-04-06T01:53:44.289Z,99268.67
2023-04-06T01:55:16.723Z,99266.55
2023-04-06T01:56:21.570Z,99266.02
2023-04-06T01:57:44.179Z,99265.16
2023-04-06T01:58:18.582Z,99265.44
2023-04-06T01:58:53.298Z,99266.20
2023-04-06T01:59:51.785Z,99267.95
2023-04-06T02:01:04.521Z,99265.00
2023-04-06T02:01:59.613Z,99258.54
2023-04-06T02:02:46.156Z,99258.89
2023-04-06T02:03:33.868Z,99258.05
2023-04-06T02:04:36.439Z,99255.77
2023-04-06T02:05:43.270Z,99257.30
2023-04-06T02:06:58.442Z,99255.37
2023-04-06T02:07:58.385Z,99256.08
2023-04-06T02:08:49.361Z,99258.69
2023-04-06T02:09:53.344Z,99252.33
2023-04-06T02:10:54.271Z,99252.95
2023-04-06T02:12:01.897Z,99249.70
2023-04-06T02:12:59.748Z,99248.02
2023-04-06T02:14:09.099Z,99245.05
2023-04-06T02:14:59.474Z,99245.85
2023-04-06T02:16:02.892Z,99242.45
2023-04-06T02:17:04.242Z,99239.91
2023-04-06T02:18:19.185Z,99240.80
2023-04-06T02:19:16.783Z,99238.23
2023-04-06T02:20:17.005Z,99237.40
2023-04-06T02:21:28.234Z,99236.20
2023-04-06T02:22:23.460Z,99235.28
2023-04-06T02:23:33.058Z,99236.09
2023-04-06T02:24:48.253Z,99233.21
2023-04-06T02:25:55.515Z,99232.43
2023-04-06T02:27:06.542Z,99231.44
2023-04-06T02:28:27.874Z,99229.54
2023-04-06T02:29:31.272Z,99227.13
2023-04-06T02:30:27.896Z,99234.83
2023-04-06T02:31:26.396Z,99224.20
2023-04-06T02:32:38.276Z,99231.63
2023-04-06T02:33:41.898Z,99219.80
2023-04-06T02:35:14.396Z,99213.76
2023-04-06T02:36:17.914Z,99215.69
2023-04-06T02:37:07.387Z,99211.06
2023-04-06T02:37:42.206Z,99212.27
2023-04-06T02:38:53.063Z,99207.30
2023-04-06T02:40:17.071Z,99207.95
2023-04-06T02:41:27.421Z,99205.59
2023-04-06T02:42:33.372Z,99204.59
2023-04-06T02:43:48.828Z,99203.16
2023-04-06T02:45:03.639Z,99200.81
2023-04-06T02:46:33.264Z,99200.69
2023-04-06T02:47:55.798Z,99204.70
2023-04-06T02:49:03.913Z,99206.05
2023-04-06T02:50:06.499Z,99208.15
2023-04-06T02:51:30.074Z,99204.42
2023-04-06T02:52:35.656Z,99205.23
2023-04-06T02:53:30.597Z,99201.62
2023-04-06T02:54:51.557Z,99202.36
2023-04-06T02:56:04.159Z,99197.63
2023-04-06T02:56:47.799Z,99200.16
2023-04-06T02:57:48.781Z,99199.52
2023-04-06T02:59:03.954Z,99195.90
2023-04-06T03:00:22.643Z,99191.14
2023-04-06T03:01:16.110Z,99186.02
2023-04-06T03:02:17.595Z,99186.50
2023-04-06T03:03:41.747Z,99189.61
2023-04-06T03:04:25.813Z,99188.66
2023-04-06T03:05:10.272Z,99188.52
2023-04-06T03:06:13.956Z,99189.35
2023-04-06T03:07:29.358Z,99190.55
2023-04-06T03:08:34.724Z,99191.06
2023-04-06T03:09:56.384Z,99186.48
2023-04-06T03:11:22.584Z,99186.60
2023-04-06T03:12:53.010Z,99183.60
2023-04-06T03:14:00.893Z,99189.40
2023-04-06T03:15:21.541Z,99187.20
2023-04-06T03:16:54.162Z,99184.79
2023-04-06T03:17:49.908Z,99189.13
2023-04-06T03:19:06.452Z,99186.55
2023-04-06T03:20:29.538Z,99187.61
2023-04-06T03:21:41.983Z,99187.71
2023-04-06T03:23:03.654Z,99190.42
2023-04-06T03:24:28.508Z,99189.30
2023-04-06T03:25:44.830Z,99186.79
2023-04-06T03:27:10.915Z,99186.45
2023-04-06T03:28:43.578Z,99182.08
2023-04-06T03:29:42.372Z,99181.09
2023-04-06T03:30:54.064Z,99180.21
2023-04-06T03:32:26.746Z,99184.34
2023-04-06T03:33:04.780Z,99180.14
2023-04-06T03:34:37.351Z,99182.28
2023-04-06T03:35:37.619Z,99181.65
2023-04-06T03:36:53.877Z,99178.41
2023-04-06T03:38:04.848Z,99179.96
2023-04-06T03:39:37.369Z,99177.66
2023-04-06T03:40:50.118Z,99176.20
2023-04-06T03:41:55.051Z,99180.14
2023-04-06T03:43:27.552Z,99174.95
2023-04-06T03:44:50.184Z,99169.73
2023-04-06T03:45:56.113Z,99174.45
2023-04-06T03:47:28.648Z,99169.69
2023-04-06T03:48:33.097Z,99168.71
2023-04-06T03:49:53.142Z,99166.25
2023-04-06T03:51:25.677Z,99170.44
2023-04-06T03:52:26.984Z,99168.38
2023-04-06T03:53:09.311Z,99167.40
2023-04-06T03:54:10.200Z,99171.45
2023-04-06T03:55:20.046Z,99170.88
2023-04-06T03:56:39.967Z,99169.77
2023-04-06T03:57:37.981Z,99166.45
2023-04-06T03:59:02.398Z,99167.27
2023-04-06T04:00:35.013Z,99166.19
2023-04-06T04:01:42.709Z,99165.20
2023-04-06T04:02:48.076Z,99166.45
2023-04-06T04:04:03.968Z,99164.36
2023-04-06T04:05:25.288Z,99165.20
2023-04-06T04:06:37.138Z,99165.56
2023-04-06T04:07:22.935Z,99166.61
2023-04-06T04:08:00.549Z,99161.75
2023-04-06T04:08:55.037Z,99165.30
2023-04-06T04:09:38.396Z,99168.27
2023-04-06T04:10:53.818Z,99166.51
2023-04-06T04:11:45.348Z,99164.70
2023-04-06T04:12:57.789Z,99162.89
2023-04-06T04:14:19.427Z,99164.60
2023-04-06T04:15:20.733Z,99164.06
2023-04-06T04:16:25.990Z,99160.95
2023-04-06T04:17:49.771Z,99161.95
2023-04-06T04:18:59.274Z,99168.48
2023-04-06T04:19:51.780Z,99166.23
2023-04-06T04:20:32.491Z,99168.75
2023-04-06T04:21:07.528Z,99169.36
2023-04-06T04:22:17.713Z,99166.30
2023-04-06T04:23:04.394Z,99169.42
2023-04-06T04:24:27.906Z,99165.90
2023-04-06T04:25:07.765Z,99165.03
2023-04-06T04:25:51.676Z,99167.73
2023-04-06T04:26:37.139Z,99165.95
2023-04-06T04:27:22.845Z,99165.38
2023-04-06T04:28:23.065Z,99166.01
2023-04-06T04:29:15.947Z,99164.17
2023-04-06T04:29:55.746Z,99163.23
2023-04-06T04:30:43.653Z,99166.64
2023-04-06T04:31:36.567Z,99161.59
2023-04-06T04:32:42.259Z,99159.82
2023-04-06T04:33:53.886Z,99159.14
2023-04-06T04:34:54.008Z,99158.52
2023-04-06T04:35:58.197Z,99159.49
2023-04-06T04:36:45.637Z,99157.80
2023-04-06T04:37:17.958Z,99156.72
2023-04-06T04:38:22.457Z,99159.30
2023-04-06T04:39:05.437Z,99157.83
2023-04-06T04:40:07.712Z,99159.52
2023-04-06T04:40:52.828Z,99159.82
2023-04-06T04:42:16.915Z,99155.49
2023-04-06T04:43:00.951Z,99152.40
2023-04-06T04:43:56.144Z,99155.63
2023-04-06T04:44:43.092Z,99150.60
2023-04-06T04:45:25.952Z,99145.61
2023-04-06T04:46:21.559Z,99142.30
2023-04-06T04:47:34.359Z,99142.63
2023-04-06T04:48:55.900Z,99141.83
2023-04-06T04:50:21.198Z,99141.62
2023-04-06T04:51:53.949Z,99141.55
2023-04-06T04:52:50.760Z,99137.21
2023-04-06T04:53:53.313Z,99134.63
2023-04-06T04:54:48.440Z,99135.47
2023-04-06T04:55:59.965Z,99130.30
2023-04-06T04:57:12.391Z,99124.50
2023-04-06T04:58:45.043Z,99128.20
2023-04-06T05:00:08.886Z,99129.55
2023-04-06T05:01:24.645Z,99132.07
2023-04-06T05:02:37.391Z,99130.79
2023-04-06T05:03:55.587Z,99127.70
2023-04-06T05:04:46.088Z,99128.45
2023-04-06T05:05:26.795Z,99124.17
2023-04-06T05:06:04.693Z,99123.29
2023-04-06T05:07:07.252Z,99123.52
2023-04-06T05:08:02.590Z,99122.44
2023-04-06T05:09:00.476Z,99115.90
2023-04-06T05:09:46.013Z,99115.89
2023-04-06T05:10:40.302Z,99115.89
2023-04-06T05:11:38.139Z,99111.61
2023-04-06T05:12:23.149Z,99111.04
2023-04-06T05:13:04.734Z,99112.04
2023-04-06T05:14:08.018Z,99110.92
2023-04-06T05:15:03.273Z,99113.95
2023-04-06T05:16:07.697Z,99114.09
2023-04-06T05:17:16.641Z,99116.83
2023-04-06T05:18:19.019Z,99116.52
2023-04-06T05:19:19.170Z,99117.70
2023-04-06T05:20:01.805Z,99115.63
2023-04-06T05:20:54.942Z,99112.69
2023-04-06T05:22:03.101Z,99112.02
2023-04-06T05:23:08.476Z,99113.70
2023-04-06T05:23:43.735Z,99109.55
2023-04-06T05:24:28.626Z,99111.38
2023-04-06T05:25:23.975Z,99106.63
2023-04-06T05:26:26.967Z,99105.52
2023-04-06T05:27:29.908Z,99100.86
2023-04-06T05:28:25.875Z,99096.75
2023-04-06T05:29:30.675Z,99097.90
2023-04-06T05:30:42.554Z,99095.43
2023-04-06T05:31:34.206Z,99089.29
2023-04-06T05:32:50.828Z,99087.23
2023-04-06T05:34:06.539Z,99083.23
2023-04-06T05:35:04.628Z,99084.10
2023-04-06T05:36:20.323Z,99084.21
2023-04-06T05:37:22.721Z,99078.77
2023-04-06T05:38:37.037Z,99076.35
2023-04-06T05:39:21.339Z,99075.25
2023-04-06T05:40:38.412Z,99077.11
2023-04-06T05:41:43.922Z,99075.05
2023-04-06T05:43:00.146Z,99068.36
2023-04-06T05:44:15.130Z,99076.96
2023-04-06T05:45:22.927Z,99075.31
2023-04-06T05:46:29.403Z,99072.90
2023-04-06T05:47:12.392Z,99072.55
2023-04-06T05:48:10.203Z,99071.29
2023-04-06T05:49:12.048Z,99069.33
2023-04-06T05:50:02.960Z,99067.77
2023-04-06T05:50:38.455Z,99068.39
2023-04-06T05:51:27.616Z,99068.90
2023-04-06T05:52:45.772Z,99066.42
2023-04-06T05:53:32.617Z,99066.38
2023-04-06T05:54:13.610Z,99068.09
2023-04-06T05:55:00.474Z,99067.17
2023-04-06T05:56:15.946Z,99065.61
2023-04-06T05:57:02.372Z,99065.73
2023-04-06T05:57:57.819Z,99065.27
2023-04-06T05:58:33.725Z,99066.18
2023-04-06T05:59:17.188Z,99064.45
2023-04-06T06:00:18.125Z,99060.90
2023-04-06T06:01:12.378Z,99059.29
2023-04-06T06:02:02.548Z,99060.95
2023-04-06T06:02:38.072Z,99060.77
2023-04-06T06:03:19.069Z,99056.11
2023-04-06T06:04:11.332Z,99055.52
2023-04-06T06:04:51.076Z,99056.13
2023-04-06T06:05:49.501Z,99055.48
2023-04-06T06:06:37.292Z,99050.29
2023-04-06T06:08:08.584Z,99049.86
2023-04-06T06:08:56.733Z,99049.11
2023-04-06T06:10:03.836Z,99048.08
2023-04-06T06:10:57.468Z,99047.16
2023-04-06T06:12:14.547Z,99042.35
2023-04-06T06:12:52.603Z,99044.25
2023-04-06T06:13:54.602Z,99044.72
2023-04-06T06:15:07.335Z,99045.15
2023-04-06T06:15:44.646Z,99041.27
2023-04-06T06:16:22.502Z,99040.67
2023-04-06T06:17:53.767Z,99037.45
2023-04-06T06:18:36.916Z,99038.83
2023-04-06T06:19:22.376Z,99038.63
2023-04-06T06:20:07.408Z,99032.19
2023-04-06T06:21:12.139Z,99036.60
2023-04-06T06:22:27.315Z,99030.61
2023-04-06T06:23:44.143Z,99031.77
2023-04-06T06:25:16.673Z,99025.84
2023-04-06T06:26:48.916Z,99026.14
2023-04-06T06:27:46.216Z,99026.30
2023-04-06T06:28:37.136Z,99028.89
2023-04-06T06:29:53.549Z,99030.08
2023-04-06T06:31:01.727Z,99024.09
2023-04-06T06:32:11.254Z,99026.31
2023-04-06T06:33:18.755Z,99022.20
2023-04-06T06:34:23.331Z,99021.71
2023-04-06T06:35:28.354Z,99015.96
2023-04-06T06:36:45.243Z,99016.56
2023-04-06T06:38:09.287Z,99012.56
2023-04-06T06:39:41.991Z,99011.36
2023-04-06T06:40:56.027Z,99010.13
2023-04-06T06:42:01.006Z,99009.73
2023-04-06T06:43:08.750Z,99009.69
2023-04-06T06:44:34.235Z,99007.36
2023-04-06T06:45:58.033Z,99006.14
2023-04-06T06:47:05.769Z,99006.98
2023-04-06T06:48:38.433Z,99004.88
2023-04-06T06:49:42.263Z,99000.27
2023-04-06T06:50:47.473Z,98999.77
2023-04-06T06:52:10.513Z,98999.16
2023-04-06T06:53:43.029Z,99000.55
2023-04-06T06:54:54.933Z,99001.44
2023-04-06T06:56:02.879Z,99000.94
2023-04-06T06:57:03.354Z,99002.38
2023-04-06T06:58:12.087Z,98999.89
2023-04-06T06:59:15.290Z,99001.65
2023-04-06T07:00:27.647Z,98996.09
2023-04-06T07:01:45.500Z,98992.66
2023-04-06T07:02:58.046Z,98990.30
2023-04-06T07:04:30.673Z,98989.27
2023-04-06T07:05:53.601Z,98986.08
2023-04-06T07:07:11.118Z,98981.40
2023-04-06T07:08:15.545Z,98984.06
2023-04-06T07:09:40.538Z,98980.92
2023-04-06T07:11:03.615Z,98979.14
2023-04-06T07:12:18.217Z,98979.14
2023-04-06T07:13:24.247Z,98976.94
2023-04-06T07:14:47.550Z,98970.41
2023-04-06T07:15:51.934Z,98970.25
2023-04-06T07:16:40.357Z,98968.21
2023-04-06T07:17:33.167Z,98968.52
2023-04-06T07:18:47.625Z,98964.52
2023-04-06T07:20:09.160Z,98964.00
2023-04-06T07:21:22.985Z,98961.11
2023-04-06T07:22:29.965Z,98961.55
2023-04-06T07:23:52.719Z,98959.73
2023-04-06T07:25:26.064Z,98961.85
2023-04-06T07:26:49.017Z,98958.45
2023-04-06T07:28:20.708Z,98956.68
2023-04-06T07:29:34.379Z,98956.32
2023-04-06T07:31:05.884Z,98957.23
2023-04-06T07:32:37.212Z,98956.66
2023-04-06T07:34:09.998Z,98958.89
2023-04-06T07:35:27.752Z,98964.13
2023-04-06T07:36:36.828Z,98964.34
2023-04-06T07:38:03.228Z,98968.66
2023-04-06T07:39:35.884Z,98974.20
2023-04-06T07:40:43.525Z,98977.74
2023-04-06T07:41:51.923Z,98978.26
2023-04-06T07:42:49.573Z,98980.17
2023-04-06T07:43:54.987Z,98977.36
2023-04-06T07:44:37.393Z,98980.30
2023-04-06T07:46:00.121Z,98983.16
2023-04-06T07:47:03.223Z,98983.61
2023-04-06T07:47:57.224Z,98980.82
2023-04-06T07:48:54.517Z,98980.19
2023-04-06T07:49:57.124Z,98981.96
2023-04-06T07:51:02.105Z,98976.88
2023-04-06T07:51:58.931Z,98981.31
2023-04-06T07:53:09.356Z,98975.06
2023-04-06T07:54:03.782Z,98981.73
2023-04-06T07:54:57.700Z,98981.40
2023-04-06T07:56:01.906Z,98982.85
2023-04-06T07:57:08.479Z,98984.95
2023-04-06T07:58:16.812Z,98984.29
2023-04-06T07:59:21.044Z,98985.64
2023-04-06T08:00:12.199Z,98982.38
2023-04-06T08:01:06.457Z,98987.45
2023-04-06T08:01:49.490Z,98983.95
2023-04-06T08:02:47.136Z,98989.40
2023-04-06T08:03:58.730Z,98984.69
2023-04-06T08:05:25.577Z,98983.20
2023-04-06T08:06:20.891Z,98984.31
2023-04-06T08:07:15.289Z,98981.91
2023-04-06T08:08:12.556Z,98980.91
2023-04-06T08:09:13.566Z,98973.48
2023-04-06T08:10:15.319Z,98973.25
2023-04-06T08:11:10.150Z,98973.41
2023-04-06T08:12:21.825Z,98967.59
2023-04-06T08:12:59.463Z,98967.73
2023-04-06T08:14:09.311Z,98969.17
2023-04-06T08:15:22.019Z,98965.48
2023-04-06T08:16:09.124Z,98964.30
2023-04-06T08:17:28.538Z,98961.77
2023-04-06T08:18:46.412Z,98960.90
2023-04-06T08:19:50.514Z,98958.63
2023-04-06T08:20:56.106Z,98954.13
2023-04-06T08:21:48.897Z,98949.09
2023-04-06T08:23:04.229Z,98946.20
2023-04-06T08:24:36.853Z,98939.92
2023-04-06T08:25:37.728Z,98943.92
2023-04-06T08:26:52.483Z,98951.63
2023-04-06T08:27:56.893Z,98949.46
2023-04-06T08:29:11.716Z,98956.83
2023-04-06T08:30:16.978Z,98965.32
2023-04-06T08:31:20.744Z,98978.06
2023-04-06T08:31:58.555Z,98988.70
2023-04-06T08:33:02.866Z,98996.69
2023-04-06T08:34:25.223Z,99009.48
2023-04-06T08:35:42.762Z,99012.99
2023-04-06T08:36:55.308Z,99014.59
2023-04-06T08:37:44.419Z,99017.36
2023-04-06T08:38:22.449Z,99015.02
2023-04-06T08:39:34.972Z,99020.80
2023-04-06T08:40:40.033Z,99026.05
2023-04-06T08:41:52.697Z,99027.15
2023-04-06T08:42:56.289Z,99027.92
2023-04-06T08:44:21.063Z,99030.27
2023-04-06T08:45:09.580Z,99033.62
2023-04-06T08:45:59.925Z,99028.40
2023-04-06T08:46:41.517Z,99022.30
2023-04-06T08:47:53.873Z,99027.33
2023-04-06T08:48:50.742Z,99026.08
2023-04-06T08:49:51.765Z,99029.70
2023-04-06T08:51:07.265Z,99026.55
2023-04-06T08:51:55.015Z,99022.55
2023-04-06T08:52:57.152Z,99017.96
2023-04-06T08:54:09.611Z,99020.20
2023-04-06T08:54:54.856Z,99016.22
2023-04-06T08:55:43.420Z,99014.69
2023-04-06T08:56:21.464Z,99016.31
2023-04-06T08:57:12.571Z,99015.13
2023-04-06T08:58:37.168Z,99009.51
2023-04-06T09:00:00.318Z,99003.71
2023-04-06T09:01:17.286Z,98988.21
2023-04-06T09:02:44.669Z,98980.77
2023-04-06T09:04:08.723Z,98977.50
2023-04-06T09:05:08.849Z,98978.33
2023-04-06T09:06:06.732Z,98976.63
2023-04-06T09:07:21.865Z,98977.48
2023-04-06T09:08:47.404Z,98980.93
2023-04-06T09:09:30.168Z,98979.05
2023-04-06T09:10:24.999Z,98980.96
2023-04-06T09:11:32.108Z,98984.40
2023-04-06T09:12:47.399Z,98983.98
2023-04-06T09:14:02.379Z,98984.63
2023-04-06T09:14:57.567Z,98986.02
2023-04-06T09:15:41.820Z,98987.93
2023-04-06T09:16:41.423Z,98987.16
2023-04-06T09:17:58.983Z,98987.02
2023-04-06T09:19:31.453Z,98988.21
2023-04-06T09:20:46.358Z,98980.94
2023-04-06T09:21:41.712Z,98983.08
2023-04-06T09:22:46.480Z,98983.23
2023-04-06T09:23:57.366Z,98984.59
2023-04-06T09:25:19.920Z,98981.50
2023-04-06T09:26:32.373Z,98985.01
2023-04-06T09:28:02.579Z,98983.05
2023-04-06T09:29:44.198Z,98990.90
2023-04-06T09:31:10.841Z,98993.39
2023-04-06T09:32:33.349Z,98991.94
2023-04-06T09:33:42.381Z,98994.77
2023-04-06T09:35:00.573Z,98994.52
2023-04-06T09:36:15.912Z,98990.52
2023-04-06T09:37:50.646Z,98992.02
2023-04-06T09:38:51.522Z,98982.98
2023-04-06T09:39:41.637Z,98985.88
2023-04-06T09:40:29.624Z,98988.89
2023-04-06T09:41:56.309Z,98990.96
2023-04-06T09:43:07.926Z,98990.06
2023-04-06T09:44:33.659Z,98990.02
2023-04-06T09:45:51.916Z,98991.79
2023-04-06T09:47:07.472Z,98993.72
2023-04-06T09:48:07.154Z,98991.40
2023-04-06T09:49:39.247Z,98991.52
2023-04-06T09:51:05.595Z,98993.25
2023-04-06T09:52:20.380Z,98996.92
2023-04-06T09:53:45.981Z,98998.63
2023-04-06T09:55:18.819Z,98993.39
2023-04-06T09:56:33.092Z,98993.07
2023-04-06T09:58:05.635Z,98990.98
2023-04-06T09:59:38.782Z,98992.86
2023-04-06T10:01:11.709Z,98992.27
2023-04-06T10:02:24.108Z,98986.49
2023-04-06T10:03:54.228Z,98985.40
2023-04-06T10:05:38.736Z,98985.27
2023-04-06T10:06:57.290Z,98989.24
2023-04-06T10:08:32.458Z,98988.86
2023-04-06T10:09:48.256Z,98989.08
2023-04-06T10:11:02.758Z,98982.17
2023-04-06T10:12:35.493Z,98982.88
2023-04-06T10:13:50.645Z,98978.31
2023-04-06T10:15:16.352Z,98976.05
2023-04-06T10:16:40.075Z,98971.02
2023-04-06T10:17:45.607Z,98970.33
2023-04-06T10:18:39.568Z,98968.20
2023-04-06T10:20:30.579Z,98970.10
2023-04-06T10:21:41.186Z,98968.64
2023-04-06T10:23:09.609Z,98968.80
2023-04-06T10:24:21.713Z,98970.26
2023-04-06T10:25:17.935Z,98968.38
2023-04-06T10:26:17.287Z,98966.67
2023-04-06T10:28:08.387Z,98967.44
2023-04-06T10:29:33.693Z,98961.38
2023-04-06T10:31:02.760Z,98961.59
2023-04-06T10:32:35.453Z,98959.58
2023-04-06T10:34:16.309Z,98953.14
2023-04-06T10:35:49.914Z,98952.10
2023-04-06T10:37:15.984Z,98959.00
2023-04-06T10:39:04.241Z,98959.05
2023-04-06T10:40:25.884Z,98962.21
2023-04-06T10:41:50.949Z,98962.27
2023-04-06T10:43:27.071Z,98962.38
2023-04-06T10:44:58.530Z,98966.08
2023-04-06T10:46:03.862Z,98966.83
2023-04-06T10:47:33.101Z,98969.04
2023-04-06T10:49:25.223Z,98971.64
2023-04-06T10:50:44.021Z,98963.64
2023-04-06T10:52:12.943Z,98962.49
2023-04-06T10:53:45.738Z,98964.01
2023-04-06T10:55:12.264Z,98957.60
2023-04-06T10:56:41.833Z,98960.64
2023-04-06T10:58:14.921Z,98955.95
2023-04-06T10:59:51.685Z,98959.92
2023-04-06T11:01:18.051Z,98957.13
2023-04-06T11:02:50.754Z,98958.20
2023-04-06T11:04:23.202Z,98964.50
2023-04-06T11:05:32.066Z,98962.35
2023-04-06T11:06:56.053Z,98962.21
2023-04-06T11:08:21.159Z,98964.65
2023-04-06T11:09:43.409Z,98963.85
2023-04-06T11:11:06.897Z,98965.80
2023-04-06T11:12:24.211Z,98964.29
2023-04-06T11:13:57.023Z,98966.56
2023-04-06T11:15:13.012Z,98960.48
2023-04-06T11:16:34.387Z,98960.47
2023-04-06T11:18:00.449Z,98956.64
2023-04-06T11:19:38.926Z,98958.58
2023-04-06T11:21:12.260Z,98955.70
2023-04-06T11:22:35.771Z,98957.96
2023-04-06T11:24:07.180Z,98959.50
2023-04-06T11:25:43.390Z,98961.45
2023-04-06T11:27:09.320Z,98967.81
2023-04-06T11:28:41.890Z,98963.67
2023-04-06T11:30:15.701Z,98966.71
2023-04-06T11:31:42.885Z,98967.17
2023-04-06T11:33:45.888Z,98964.11
2023-04-06T11:35:13.040Z,98966.34
2023-04-06T11:36:34.109Z,98961.25
2023-04-06T11:38:00.370Z,98960.83
2023-04-06T11:39:28.630Z,98958.41
2023-04-06T11:40:50.113Z,98957.01
2023-04-06T11:42:23.204Z,98954.95
2023-04-06T11:43:56.216Z,98955.80
2023-04-06T11:45:32.818Z,98950.23
2023-04-06T11:47:05.372Z,98950.06
2023-04-06T11:56:23.794Z,98949.89
2023-04-06T11:57:24.974Z,98952.89
2023-04-06T11:58:59.853Z,98949.84
2023-04-06T12:00:30.784Z,98946.30
2023-04-06T12:02:06.132Z,98946.35
2023-04-06T12:03:29.103Z,98946.64
2023-04-06T12:05:01.893Z,98945.09
2023-04-06T12:06:34.506Z,98942.15
2023-04-06T12:07:50.186Z,98941.92
2023-04-06T12:09:04.210Z,98944.98
2023-04-06T12:10:37.045Z,98949.73
2023-04-06T12:11:58.713Z,98944.16
2023-04-06T12:13:02.908Z,98944.88
2023-04-06T12:14:35.523Z,98949.30
2023-04-06T12:16:08.963Z,98945.77
2023-04-06T12:17:34.805Z,98946.18
2023-04-06T12:19:09.051Z,98947.73
2023-04-06T12:31:03.444Z,98951.36
2023-04-06T12:32:21.373Z,98949.73
2023-04-06T12:33:47.238Z,98946.12
2023-04-06T12:35:09.991Z,98943.98
2023-04-06T12:36:42.857Z,98945.21
2023-04-06T12:38:14.413Z,98948.44
2023-04-06T12:39:49.740Z,98945.08
2023-04-06T12:41:22.433Z,98940.51
2023-04-06T12:42:28.978Z,98941.77
2023-04-06T12:43:52.148Z,98945.39
2023-04-06T12:44:45.562Z,98941.25
2023-04-06T12:45:51.965Z,98939.44
2023-04-06T12:47:24.711Z,98940.17
2023-04-06T12:48:58.428Z,98937.12
2023-04-06T12:50:31.195Z,98936.75
2023-04-06T12:51:44.332Z,98938.53
2023-04-06T12:52:59.403Z,98942.39
2023-04-06T12:54:12.821Z,98941.46
2023-04-06T12:55:25.560Z,98942.17
2023-04-06T12:56:37.293Z,98942.75
2023-04-06T12:57:31.281Z,98940.23
2023-04-06T12:58:43.914Z,98940.41
2023-04-06T13:00:16.836Z,98937.57
2023-04-06T13:01:03.581Z,98937.81
2023-04-06T13:01:55.779Z,98937.20
2023-04-06T13:03:28.254Z,98939.84
2023-04-06T13:04:52.003Z,98941.36
2023-04-06T13:06:06.084Z,98940.61
2023-04-06T13:07:08.782Z,98932.77
2023-04-06T13:08:41.585Z,98934.85
2023-04-06T13:09:50.402Z,98931.20
2023-04-06T13:11:22.492Z,98929.16
2023-04-06T13:12:32.187Z,98935.56
2023-04-06T13:13:40.886Z,98938.73
2023-04-06T13:15:02.640Z,98936.03
2023-04-06T13:16:07.422Z,98933.68
2023-04-06T13:17:21.556Z,98928.21
2023-04-06T13:18:44.443Z,98924.23
2023-04-06T13:19:58.190Z,98928.09
2023-04-06T13:21:00.621Z,98921.70
2023-04-06T13:22:16.361Z,98923.55
2023-04-06T13:23:19.154Z,98923.66
2023-04-06T13:24:24.787Z,98921.96
2023-04-06T13:25:57.198Z,98918.95
2023-04-06T13:27:00.372Z,98913.61
2023-04-06T13:27:58.915Z,98916.22
2023-04-06T13:28:57.134Z,98917.64
2023-04-06T13:30:08.425Z,98919.00
2023-04-06T13:31:41.079Z,98917.02
2023-04-06T13:33:10.158Z,98920.48
2023-04-06T13:34:22.747Z,98916.80
2023-04-06T13:35:43.231Z,98917.17
2023-04-06T13:36:43.439Z,98919.48
2023-04-06T13:38:06.647Z,98918.58
2023-04-06T13:39:39.228Z,98917.50
2023-04-06T13:40:55.264Z,98916.45
2023-04-06T13:42:16.828Z,98919.67
2023-04-06T13:43:42.481Z,98923.17
2023-04-06T13:44:54.156Z,98926.70
2023-04-06T13:46:09.154Z,98922.29